Time;durP1;ratioP1;P1;durP2;ratioP2;P2;SDS_P1;SDS_P2;PMS_P1;PMS_P2;Temp;Humidity;BMP_temperature;BMP_pressure;BME280_temperature;BME280_humidity;BME280_pressure;Samples;Min_cycle;Max_cycle;Signal;HPM_P1;HPM_P2
2023/05/24 00:09:58;;;;;;;;;;;;;;;;;;;;;
2023/05/24 00:15:58;;;;;;;28.05;18.40;;;15.60;99.90;;;;;;6285036;22;20015;-94
2023/05/24 00:19:07;;;;;;;;;;;;;;;;;;;;;
2023/05/24 00:26:41;;;;;;;26.65;19.63;;;15.50;99.90;;;;;;6291909;22;20058;-93
2023/05/24 00:30:03;;;;;;;27.30;19.30;;;15.40;99.90;;;;;;6298745;22;20015;-94
2023/05/24 00:33:59;;;;;;;24.20;17.92;;;15.50;99.90;;;;;;6274367;22;20042;-94
2023/05/24 00:54:28;;;;;;;;;;;;;;;;;;;;;
2023/05/24 00:57:54;;;;;;;26.48;18.83;;;15.20;99.90;;;;;;6265834;22;20024;-95
2023/05/24 01:01:23;;;;;;;;;;;;;;;;;;;;;
2023/05/24 01:08:33;;;;;;;33.30;19.17;;;15.10;99.90;;;;;;6060137;23;20043;-93
2023/05/24 01:38:11;;;;;;;35.13;19.67;;;15.00;99.90;;;;;;6296835;22;20098;-95
2023/05/24 01:41:32;;;;;;;33.72;20.85;;;15.00;99.90;;;;;;6265300;22;20067;-95
2023/05/24 01:45:24;;;;;;;43.03;20.63;;;14.90;99.90;;;;;;6250020;22;20015;-93
2023/05/24 02:05:37;;;;;;;27.05;20.58;;;15.30;99.90;;;;;;6260955;22;20020;-94
2023/05/24 02:22:30;;;;;;;27.52;19.33;;;14.80;99.90;;;;;;6337304;22;20026;-93
2023/05/24 02:28:40;;;;;;;25.08;19.17;;;14.70;99.90;;;;;;6250050;22;20087;-94
2023/05/24 02:31:55;;;;;;;24.88;18.77;;;14.70;99.90;;;;;;6212968;23;20043;-94
2023/05/24 02:50:46;;;;;;;;;;;;;;;;;;;;;
2023/05/24 02:54:08;;;;;;;22.50;16.98;;;14.70;99.90;;;;;;6277189;22;20038;-92
2023/05/24 03:01:17;;;;;;;22.33;17.35;;;14.50;99.90;;;;;;6177105;22;20042;-94
2023/05/24 03:04:43;;;;;;;29.53;16.67;;;14.40;99.90;;;;;;6244824;22;20349;-94
2023/05/24 03:11:51;;;;;;;;;;;;;;;;;;;;;
2023/05/24 03:37:52;;;;;;;27.05;16.05;;;14.10;99.90;;;;;;6248144;22;20055;-93
2023/05/24 03:40:51;;;;;;;19.90;15.75;;;14.10;99.90;;;;;;6249224;22;20004;-94
2023/05/24 04:29:35;;;;;;;19.23;17.20;;;15.20;99.90;;;;;;6221578;22;20003;-95
2023/05/24 04:32:20;;;;;;;20.73;18.58;;;15.40;99.90;;;;;;6226548;23;20076;-94
2023/05/24 04:35:20;;;;;;;20.70;18.48;;;15.60;99.90;;;;;;6183804;23;20095;-95
2023/05/24 04:38:07;;;;;;;20.08;17.85;;;16.10;99.90;;;;;;6156808;23;20001;-94
2023/05/24 04:43:41;;;;;;;18.55;16.65;;;18.30;99.90;;;;;;6266800;22;20019;-94
2023/05/24 05:19:55;;;;;;;27.63;25.35;;;26.60;99.90;;;;;;6256950;22;20031;-96
2023/05/24 05:28:57;;;;;;;28.65;26.35;;;28.90;99.90;;;;;;6288598;22;20036;-93
2023/05/24 05:31:49;;;;;;;28.13;25.92;;;28.40;99.90;;;;;;6268396;22;20016;-92
2023/05/24 05:34:18;;;;;;;27.90;25.80;;;28.10;99.90;;;;;;6265546;22;20337;-93
2023/05/24 05:36:45;;;;;;;28.23;25.90;;;27.50;99.90;;;;;;6238788;22;20031;-94
2023/05/24 05:39:12;;;;;;;29.08;26.73;;;27.50;99.90;;;;;;6241192;22;20008;-92
2023/05/24 05:41:50;;;;;;;29.48;26.85;;;27.60;99.90;;;;;;6232578;23;20018;-93
2023/05/24 05:50:45;;;;;;;28.55;26.17;;;28.90;99.90;;;;;;6269375;22;20027;-93
2023/05/24 06:18:52;;;;;;;29.38;26.63;;;30.00;99.90;;;;;;6266490;22;20024;-93
2023/05/24 06:24:32;;;;;;;;;;;;;;;;;;;;;
2023/05/24 06:27:22;;;;;;;28.95;26.85;;;30.00;99.90;;;;;;6243681;23;19997;-94
2023/05/24 06:29:52;;;;;;;29.42;27.17;;;29.90;99.90;;;;;;6216021;22;20003;-95
2023/05/24 06:32:21;;;;;;;29.52;27.52;;;29.80;99.90;;;;;;6260790;22;20003;-94
2023/05/24 06:34:57;;;;;;;28.55;26.50;;;30.20;99.90;;;;;;6268291;22;20030;-92
2023/05/24 06:37:25;;;;;;;29.20;26.50;;;30.10;99.90;;;;;;6223870;22;20008;-93
2023/05/24 06:40:00;;;;;;;28.75;26.85;;;29.90;99.90;;;;;;6221572;22;20027;-92
2023/05/24 22:35:03;;;;;;;22.05;19.70;;;17.50;99.90;;;;;;6257731;22;20030;-93
2023/05/24 22:37:37;;;;;;;20.92;18.83;;;17.40;99.90;;;;;;6256179;22;20004;-94
2023/05/24 22:40:13;;;;;;;21.23;18.88;;;17.40;99.90;;;;;;6233403;22;20011;-94
2023/05/24 22:42:43;;;;;;;21.33;19.13;;;17.40;99.90;;;;;;6234347;22;20068;-94
2023/05/24 22:45:19;;;;;;;21.00;19.05;;;17.40;99.90;;;;;;6233661;22;20019;-94
2023/05/24 22:47:49;;;;;;;21.80;19.08;;;17.50;99.90;;;;;;6234678;22;20018;-94
2023/05/24 22:50:16;;;;;;;21.58;19.45;;;17.60;99.90;;;;;;6256447;22;20028;-93
2023/05/24 22:52:45;;;;;;;22.17;19.92;;;17.70;99.90;;;;;;6230854;22;20408;-93
2023/05/24 22:55:13;;;;;;;21.58;19.38;;;17.60;99.90;;;;;;6228233;22;20082;-94
2023/05/24 22:57:40;;;;;;;21.35;19.23;;;17.50;99.90;;;;;;6228445;22;20027;-93
2023/05/24 23:00:10;;;;;;;22.50;19.15;;;17.50;99.90;;;;;;6226897;22;20011;-93
2023/05/24 23:02:37;;;;;;;23.08;20.38;;;17.60;99.90;;;;;;6252470;22;20007;-93
2023/05/24 23:05:04;;;;;;;23.02;20.63;;;17.60;99.90;;;;;;6227334;22;20498;-91
2023/05/24 23:07:30;;;;;;;23.73;21.17;;;17.70;99.90;;;;;;6254301;22;20004;-94
2023/05/24 23:10:00;;;;;;;24.90;20.10;;;17.60;99.90;;;;;;6227369;22;20341;-93
2023/05/24 23:12:27;;;;;;;22.83;20.30;;;17.60;99.90;;;;;;6228509;22;20047;-93
2023/05/24 23:14:57;;;;;;;23.25;20.90;;;17.50;99.90;;;;;;6227031;22;20130;-92
2023/05/24 23:17:23;;;;;;;22.88;20.63;;;17.40;99.90;;;;;;6227061;22;20007;-94
2023/05/24 23:19:50;;;;;;;24.80;21.17;;;17.30;99.90;;;;;;6259626;22;20007;-94
2023/05/24 23:22:22;;;;;;;24.42;20.85;;;17.30;99.90;;;;;;6229278;22;20024;-93
2023/05/24 23:24:49;;;;;;;22.90;20.50;;;17.20;99.90;;;;;;6226528;22;20092;-93
2023/05/24 23:27:16;;;;;;;26.90;20.58;;;17.20;99.90;;;;;;6227023;22;20008;-93
2023/05/24 23:29:45;;;;;;;26.60;20.65;;;17.00;99.90;;;;;;6232281;22;20456;-93
